New Braunfels, TX (78130)

5:26 AM CST on February 12, 2016 (GMT -0600)
Gruene Crossing | | Change Station
CLOSE
Current Station
Personal Weather Station
Location: New Braunfels, TX
Elevation: 701 ft
Nearby Weather Stations

Elev 701 ft 29.73 °N, 98.10 °W | Updated 2 seconds ago

Clear
Clear
44.1 °F
Feels Like 44 °F
N
0.0
Wind Variable Wind from WSW
Gusts 0.0 mph

Today
High -- | Low -- °F
--% Chance of Precip.
Yesterday
High -- | Low -- °F
Precip. -- in
Pressure 30.14 in
Visibility 4.0 miles
Clouds Clear
Windchill 44 °F
Dew Point 39 °F
Humidity 83%
Rainfall 0.00 in
Snow Depth Not available.
7:14 AM 6:18 PM
Waxing Crescent, 19% visible
METAR KBAZ 121051Z AUTO 24003KT 4SM BR CLR 08/08 A3015 RMK AO2 SLP205 T00830078
Pressure 30.14 in
Visibility 4.0 miles
Clouds Clear
Windchill 44 °F
Dew Point 39 °F
Humidity 83%
Rainfall 0.00 in
Snow Depth Not available.
7:14 AM 6:18 PM
Waxing Crescent, 19% visible
METAR KBAZ 121051Z AUTO 24003KT 4SM BR CLR 08/08 A3015 RMK AO2 SLP205 T00830078

10-Day Weather Forecast

Almanac

Astronomy

Feb. 12, 2016 Rise Set
Actual Time
Civil Twilight
Nautical Twilight
Astronomical Twilight
Moon
Length of Visible Light
Length of Day
Tomorrow will be .
, % of the Moon is Illuminated

Today's Extremes

State Highs State Lows

Community

WunderPhotos

Upload Photos

1,892,290 photos uploaded!

WunderBlog® & News

Nearby

Air Quality

  Air Quality AQ Index Pollutant
Not available.

Snow Depth

Station Depth Elevation

Earthquake Activity

City Distance Mag. Time & Date
Minimum magnitude displayed is 2.5.

Coastal Water Temperatures

Place Temperature

Stations

Nearby Weather Stations

Station Location Temp. Windchill Dew Point Humidity Wind Precip. Elev Updated Type
                   

Watches & Warnings

There are currently no watches in effect.